Time;durP1;ratioP1;P1;durP2;ratioP2;P2;SDS_P1;SDS_P2;PMS_P1;PMS_P2;Temp;Humidity;BMP_temperature;BMP_pressure;BME280_temperature;BME280_humidity;BME280_pressure;Samples;Min_cycle;Max_cycle;Signal;HPM_P1;HPM_P2
2022/03/14 00:01:10;;;;;;;7.27;5.93;;;11.20;23.60;;;13.76;23.39;101777.31;5035946;28;20195;-47
2022/03/14 00:03:45;;;;;;;7.93;6.27;;;11.10;23.60;;;13.74;23.50;101776.69;5036964;28;20572;-49
2022/03/14 00:06:14;;;;;;;7.10;6.40;;;11.10;23.70;;;13.75;23.30;101775.66;5037129;28;20295;-48
2022/03/14 00:08:42;;;;;;;7.20;6.53;;;11.10;23.70;;;13.75;23.50;101770.38;5038405;28;20194;-49
2022/03/14 00:11:10;;;;;;;7.90;6.40;;;11.10;23.70;;;13.68;23.54;101778.16;5038721;28;20241;-47
2022/03/14 00:13:38;;;;;;;7.60;6.80;;;11.10;23.80;;;13.61;23.30;101773.72;5038144;28;20194;-47
2022/03/14 00:16:08;;;;;;;7.43;6.27;;;11.00;23.80;;;13.56;23.55;101775.06;5035767;28;20210;-50
2022/03/14 00:18:36;;;;;;;8.53;6.60;;;11.00;23.80;;;13.52;23.74;101776.41;5038726;28;20641;-50
2022/03/14 00:21:05;;;;;;;7.10;6.40;;;11.00;23.90;;;13.49;23.54;101776.72;5039148;28;20186;-47
2022/03/14 00:23:33;;;;;;;8.57;7.13;;;11.00;24.00;;;13.48;23.64;101777.69;5038719;28;20224;-48
2022/03/14 00:26:07;;;;;;;8.47;6.83;;;10.90;24.10;;;13.41;24.13;101776.72;5035803;28;20329;-49
2022/03/14 00:28:35;;;;;;;8.00;6.23;;;10.80;24.20;;;13.36;24.08;101780.88;5038068;28;20179;-48
2022/03/14 00:31:02;;;;;;;7.67;6.97;;;10.80;24.20;;;13.29;24.13;101779.84;5035361;28;20191;-48
2022/03/14 00:33:30;;;;;;;8.03;7.23;;;10.80;24.40;;;13.24;24.19;101787.50;5015433;28;20222;-47
2022/03/14 00:35:57;;;;;;;7.53;6.73;;;10.80;24.40;;;13.20;24.04;101797.56;5013862;28;20572;-46
2022/03/14 00:38:27;;;;;;;7.27;6.57;;;10.70;24.40;;;13.18;24.36;101796.91;5014778;28;20207;-47
2022/03/14 00:40:56;;;;;;;8.00;6.33;;;10.70;24.40;;;13.16;24.27;101796.25;5014201;28;20654;-46
2022/03/14 00:43:23;;;;;;;9.10;7.10;;;10.60;24.50;;;13.16;24.55;101796.25;5013962;28;20203;-47
2022/03/14 00:45:50;;;;;;;7.13;6.23;;;10.60;24.60;;;13.18;24.32;101802.19;5014040;28;20195;-47
2022/03/14 00:48:18;;;;;;;6.90;5.83;;;10.60;24.50;;;13.20;24.24;101797.56;5015261;28;20226;-47
2022/03/14 00:50:45;;;;;;;6.40;5.70;;;10.50;24.50;;;13.25;24.19;101803.19;5013156;28;20199;-47
2022/03/14 00:53:12;;;;;;;8.63;6.50;;;10.50;24.50;;;13.28;24.40;101805.50;5013472;28;20196;-48
2022/03/14 00:55:40;;;;;;;9.27;5.97;;;10.50;24.60;;;13.27;24.40;101809.13;5013935;28;20577;-48
2022/03/14 00:58:08;;;;;;;8.77;6.80;;;10.50;24.60;;;13.25;24.10;101803.19;5013103;28;20250;-48
2022/03/14 01:00:36;;;;;;;8.33;6.57;;;10.50;24.80;;;13.26;24.51;101806.66;5013251;28;20200;-48
2022/03/14 01:03:04;;;;;;;8.40;6.93;;;10.50;24.90;;;13.22;24.81;101805.31;5013736;28;20218;-49
2022/03/14 01:05:32;;;;;;;7.30;6.27;;;10.40;25.00;;;13.20;24.45;101805.50;5026875;28;20240;-47
2022/03/14 01:07:59;;;;;;;7.67;6.90;;;10.40;24.90;;;13.21;24.63;101809.81;5032559;28;20229;-48
2022/03/14 01:10:28;;;;;;;7.27;6.47;;;10.40;25.00;;;13.21;24.86;101814.25;5036697;28;20198;-50
2022/03/14 01:12:57;;;;;;;7.80;6.17;;;10.40;25.20;;;13.16;24.51;101820.03;5036517;28;20186;-48
2022/03/14 01:15:25;;;;;;;8.73;6.67;;;10.40;25.30;;;13.11;24.70;101814.41;5036922;28;20545;-47
2022/03/14 01:17:54;;;;;;;7.67;6.30;;;10.40;25.30;;;13.06;25.08;101816.72;5036745;28;20210;-46
2022/03/14 01:20:21;;;;;;;7.73;6.87;;;10.30;25.30;;;13.02;24.71;101820.66;5034559;28;20203;-48
2022/03/14 01:22:49;;;;;;;7.80;6.37;;;10.30;25.30;;;12.99;24.61;101820.97;5036425;28;20198;-50
2022/03/14 01:25:16;;;;;;;7.17;6.47;;;10.20;25.30;;;12.97;24.68;101822.13;5036288;28;20199;-47
2022/03/14 01:27:43;;;;;;;10.00;7.03;;;10.20;25.30;;;12.91;24.77;101819.16;5035945;28;20695;-48
2022/03/14 01:30:11;;;;;;;8.03;6.63;;;10.20;25.40;;;12.89;25.11;101830.88;5036481;28;20660;-47
2022/03/14 01:32:40;;;;;;;6.97;6.27;;;10.20;25.60;;;12.85;24.92;101829.53;5036389;28;20191;-47
2022/03/14 01:35:07;;;;;;;7.60;6.67;;;10.10;25.50;;;12.84;25.12;101835.81;5036668;28;20276;-47
2022/03/14 01:37:35;;;;;;;8.90;6.80;;;10.10;25.60;;;12.82;25.25;101829.84;5034338;28;20222;-48
2022/03/14 01:40:03;;;;;;;7.53;6.70;;;10.10;25.80;;;12.79;25.36;101835.47;5036806;28;20221;-47
2022/03/14 01:42:31;;;;;;;8.50;6.67;;;10.00;25.60;;;12.78;25.30;101839.94;5037686;28;20198;-47
2022/03/14 01:44:58;;;;;;;8.23;7.00;;;10.00;25.60;;;12.78;25.49;101836.47;5037626;28;20657;-49
2022/03/14 01:47:25;;;;;;;8.23;7.10;;;10.00;25.80;;;12.72;25.42;101835.28;5036858;28;20228;-46
2022/03/14 01:49:54;;;;;;;8.53;6.67;;;10.00;25.70;;;12.65;25.07;101838.72;5036088;28;20200;-46
2022/03/14 01:52:21;;;;;;;7.00;5.97;;;10.00;25.70;;;12.59;25.39;101839.38;5035829;28;20637;-49
2022/03/14 01:54:49;;;;;;;8.37;7.43;;;9.90;26.30;;;12.54;25.14;101833.75;5018063;28;20195;-47
2022/03/14 01:57:16;;;;;;;7.77;7.07;;;9.90;26.40;;;12.52;25.39;101835.72;5015797;28;20219;-47
2022/03/14 01:59:44;;;;;;;7.77;6.43;;;9.80;26.20;;;12.52;25.26;101838.38;5016074;28;20192;-48
2022/03/14 02:02:11;;;;;;;8.60;7.27;;;9.80;26.20;;;12.50;25.40;101833.25;5016564;28;20689;-46
2022/03/14 02:04:39;;;;;;;7.90;6.50;;;9.80;26.30;;;12.46;24.89;101834.53;5016493;28;20607;-46
2022/03/14 02:07:08;;;;;;;8.37;5.90;;;9.80;26.20;;;12.45;24.89;101832.06;5016944;28;20593;-46
2022/03/14 02:09:35;;;;;;;7.50;6.70;;;9.80;26.30;;;12.43;25.16;101834.06;5019498;28;20187;-48
2022/03/14 02:12:07;;;;;;;8.93;6.63;;;9.80;26.30;;;12.46;25.24;101831.06;5036534;28;20194;-49
2022/03/14 02:14:39;;;;;;;7.00;6.30;;;9.80;26.30;;;12.52;25.02;101841.00;5036243;28;20212;-48
2022/03/14 02:17:09;;;;;;;7.77;6.97;;;9.80;26.40;;;12.55;25.18;101840.69;5035565;28;20305;-47
2022/03/14 02:19:37;;;;;;;7.07;6.37;;;9.80;26.50;;;12.57;25.04;101841.38;5035197;28;20274;-48
2022/03/14 02:22:14;;;;;;;9.70;7.00;;;9.80;26.50;;;12.61;25.29;101840.03;5035268;28;20191;-48
2022/03/14 02:24:43;;;;;;;9.13;6.77;;;9.80;26.50;;;12.63;25.49;101840.69;5035517;28;20664;-47
2022/03/14 02:27:11;;;;;;;7.30;6.23;;;9.80;26.60;;;12.68;25.54;101841.06;5021273;28;20223;-47
2022/03/14 02:29:39;;;;;;;6.87;6.17;;;9.80;26.70;;;12.73;25.59;101841.41;5014980;28;20188;-50
2022/03/14 02:32:07;;;;;;;7.30;6.50;;;9.80;26.70;;;12.72;25.51;101840.56;5015027;28;20195;-49
2022/03/14 02:34:35;;;;;;;7.17;6.27;;;9.90;26.90;;;12.75;25.58;101850.00;5014899;28;20210;-47
2022/03/14 02:37:04;;;;;;;8.07;6.17;;;9.90;26.90;;;12.83;25.20;101850.03;5014601;28;20228;-48
2022/03/14 02:39:34;;;;;;;7.33;5.90;;;9.90;26.90;;;12.89;25.40;101849.34;5015400;28;20191;-49
2022/03/14 02:42:02;;;;;;;6.27;5.67;;;9.90;26.90;;;12.92;25.36;101854.31;5017478;28;20187;-48
2022/03/14 02:44:31;;;;;;;7.87;7.07;;;9.90;26.80;;;12.90;25.48;101853.66;5035406;28;20229;-46
2022/03/14 02:46:59;;;;;;;7.67;6.87;;;10.00;26.20;;;12.86;25.34;101852.31;5034570;28;20269;-47
2022/03/14 02:49:26;;;;;;;8.87;7.00;;;10.00;26.10;;;12.82;25.59;101854.47;5034672;28;20195;-48
2022/03/14 02:51:53;;;;;;;7.63;6.83;;;10.00;26.20;;;12.79;25.23;101856.59;5034767;28;20186;-49
2022/03/14 02:54:21;;;;;;;7.47;6.10;;;9.90;27.30;;;12.78;25.64;101860.25;5035769;28;20740;-46
2022/03/14 02:56:49;;;;;;;9.23;6.90;;;9.90;26.80;;;12.76;25.35;101851.66;5034497;28;20563;-46
2022/03/14 02:59:17;;;;;;;6.90;6.20;;;9.90;26.70;;;12.77;25.53;101853.28;5023023;28;20546;-48
2022/03/14 03:01:44;;;;;;;6.97;5.90;;;9.90;26.80;;;12.71;25.36;101860.06;5014464;28;20204;-46
2022/03/14 03:04:12;;;;;;;10.10;6.63;;;9.90;26.80;;;12.69;25.24;101866.50;5014723;28;20202;-50
2022/03/14 03:06:39;;;;;;;8.00;6.77;;;9.90;26.70;;;12.63;25.57;101859.19;5014337;28;20688;-48
2022/03/14 03:09:07;;;;;;;7.33;6.63;;;9.90;26.70;;;12.61;25.50;101861.16;5017790;28;20214;-48
2022/03/14 03:11:34;;;;;;;6.83;6.00;;;9.90;26.70;;;12.59;25.71;101865.78;5019792;28;20589;-47
2022/03/14 03:14:03;;;;;;;8.67;6.27;;;9.90;26.70;;;12.60;25.44;101865.63;5015863;28;20301;-48
2022/03/14 03:16:32;;;;;;;7.37;6.40;;;9.80;26.70;;;12.60;25.18;101873.53;5014551;28;20311;-47
2022/03/14 03:19:00;;;;;;;7.70;6.90;;;9.80;26.70;;;12.60;25.29;101870.91;5014929;28;20269;-49
2022/03/14 03:21:27;;;;;;;7.77;6.40;;;9.80;26.80;;;12.62;25.57;101876.03;5014735;28;20191;-47
2022/03/14 03:23:55;;;;;;;6.40;5.73;;;9.80;26.70;;;12.61;25.58;101879.66;5013511;28;20282;-48
2022/03/14 03:26:22;;;;;;;9.40;6.73;;;9.80;26.80;;;12.59;25.56;101887.75;5014105;28;20191;-48
2022/03/14 03:28:50;;;;;;;8.80;6.70;;;9.80;26.80;;;12.54;25.56;101891.84;5014372;28;20222;-46
2022/03/14 03:31:19;;;;;;;9.83;7.23;;;9.80;26.80;;;12.49;25.51;101891.50;5015894;28;20195;-47
2022/03/14 03:33:50;;;;;;;7.67;6.17;;;9.80;27.00;;;12.46;25.70;101897.91;5013998;28;20261;-50
2022/03/14 03:36:17;;;;;;;7.07;6.37;;;9.80;27.00;;;12.44;25.89;101899.06;5017932;28;20930;-47
2022/03/14 03:38:45;;;;;;;8.23;6.90;;;9.70;26.90;;;12.37;25.95;101903.31;5017563;28;20187;-47
2022/03/14 03:41:12;;;;;;;7.63;6.93;;;9.70;27.00;;;12.34;26.10;101904.44;5018539;28;20203;-48
2022/03/14 03:43:39;;;;;;;7.87;7.00;;;9.70;27.10;;;12.32;26.03;101910.88;5018191;28;20191;-49
2022/03/14 03:46:06;;;;;;;7.80;6.20;;;9.70;27.10;;;12.28;25.72;101909.53;5019109;28;20202;-45
2022/03/14 03:48:35;;;;;;;9.47;6.67;;;9.60;27.10;;;12.24;25.80;101915.13;5024108;28;20271;-46
2022/03/14 03:51:03;;;;;;;9.13;7.00;;;9.60;27.40;;;12.22;26.16;101919.72;5033956;28;20216;-48
2022/03/14 03:53:31;;;;;;;7.57;6.00;;;9.60;27.40;;;12.26;26.14;101927.34;5033722;28;20270;-48
2022/03/14 03:55:58;;;;;;;8.37;6.57;;;9.50;27.40;;;12.29;26.46;101922.56;5033684;28;20206;-48
2022/03/14 03:58:25;;;;;;;8.90;6.87;;;9.50;27.40;;;12.33;26.57;101923.94;5033457;28;20207;-45
2022/03/14 04:00:53;;;;;;;10.43;6.97;;;9.60;27.70;;;12.36;25.95;101933.34;5033421;28;20273;-48
2022/03/14 04:03:21;;;;;;;8.10;7.20;;;9.60;27.80;;;12.36;26.07;101939.44;5033482;28;20190;-48
2022/03/14 04:05:51;;;;;;;8.17;6.30;;;9.60;27.80;;;12.37;26.53;101932.34;5032046;28;20270;-48
2022/03/14 04:08:19;;;;;;;8.03;6.73;;;9.60;27.80;;;12.40;26.54;101930.25;5033636;28;20221;-48
2022/03/14 04:10:53;;;;;;;7.70;6.57;;;9.60;27.80;;;12.45;26.51;101932.41;5033173;28;20194;-46
2022/03/14 04:13:23;;;;;;;8.87;6.80;;;9.60;27.80;;;12.51;26.35;101934.41;5032662;28;20686;-47
2022/03/14 04:15:54;;;;;;;6.90;6.20;;;9.60;27.80;;;12.52;26.50;101936.06;5033047;28;20544;-48
2022/03/14 04:18:24;;;;;;;9.13;6.83;;;9.60;27.90;;;12.51;26.37;101939.69;5033534;28;20214;-49
2022/03/14 04:20:55;;;;;;;8.70;6.43;;;9.70;27.90;;;12.49;26.21;101936.38;5031926;28;20199;-48
2022/03/14 04:23:23;;;;;;;9.70;7.33;;;9.70;27.90;;;12.53;26.40;101935.91;5034064;28;20194;-48
2022/03/14 04:25:50;;;;;;;8.50;6.93;;;9.70;27.90;;;12.58;25.98;101935.44;5033399;28;20694;-48
2022/03/14 04:28:17;;;;;;;8.40;6.80;;;9.70;27.90;;;12.59;25.96;101939.75;5032755;28;20230;-47
2022/03/14 04:30:45;;;;;;;8.53;7.00;;;9.70;27.90;;;12.59;26.36;101948.50;5038181;28;20195;-46
2022/03/14 04:33:12;;;;;;;8.37;7.23;;;9.70;27.90;;;12.58;26.16;101946.81;5041806;28;20675;-48
2022/03/14 04:35:40;;;;;;;7.37;6.53;;;9.70;27.90;;;12.58;25.89;101954.75;5034456;28;20187;-47
2022/03/14 04:38:09;;;;;;;7.97;6.50;;;9.70;27.90;;;12.58;26.52;101954.75;5031449;28;20788;-48
2022/03/14 04:40:37;;;;;;;9.23;7.17;;;9.70;28.00;;;12.57;26.40;101965.50;5033035;28;20194;-48
2022/03/14 04:43:05;;;;;;;8.07;6.23;;;9.70;28.20;;;12.60;26.72;101957.25;5033442;28;20187;-48
2022/03/14 04:45:32;;;;;;;8.07;6.43;;;9.70;28.10;;;12.67;26.36;101960.91;5037488;28;20274;-47
2022/03/14 04:48:00;;;;;;;8.03;6.70;;;9.70;28.30;;;12.74;26.26;101970.69;5037264;28;20578;-46
2022/03/14 04:50:28;;;;;;;8.00;6.40;;;9.80;28.40;;;12.79;25.84;101973.69;5036549;28;20202;-47
2022/03/14 04:52:55;;;;;;;11.90;6.30;;;9.80;28.20;;;12.81;26.30;101971.69;5037683;28;20206;-46
2022/03/14 04:55:24;;;;;;;11.30;7.47;;;9.80;28.20;;;12.81;26.35;101971.69;5036551;28;20199;-46
2022/03/14 04:57:52;;;;;;;7.90;6.93;;;9.80;28.10;;;12.79;26.37;101978.13;5036957;28;20289;-49
2022/03/14 05:00:20;;;;;;;9.10;6.70;;;9.80;28.20;;;12.77;26.19;101980.09;5036776;28;20546;-49
2022/03/14 05:02:47;;;;;;;8.40;6.60;;;9.80;28.20;;;12.76;26.28;101983.75;5037391;28;20758;-46
2022/03/14 05:05:14;;;;;;;8.43;7.63;;;9.80;28.20;;;12.77;26.26;101983.56;5037508;28;20195;-48
2022/03/14 05:07:42;;;;;;;8.53;7.00;;;9.80;28.30;;;12.79;26.45;101989.53;5036375;28;20588;-47
2022/03/14 05:10:11;;;;;;;8.63;7.77;;;9.80;28.30;;;12.78;26.50;101994.97;5036919;28;20541;-46
2022/03/14 05:12:39;;;;;;;8.67;7.30;;;9.80;28.40;;;12.74;26.58;101996.28;5019645;28;20198;-47
2022/03/14 05:15:08;;;;;;;9.83;6.83;;;9.80;28.50;;;12.67;26.77;102005.84;5018386;28;20202;-47
2022/03/14 05:17:36;;;;;;;7.77;6.83;;;9.80;28.40;;;12.63;26.90;102007.09;5017516;28;20223;-46
2022/03/14 05:20:04;;;;;;;8.73;6.67;;;9.80;28.60;;;12.63;26.55;102009.75;5017639;28;20193;-50
2022/03/14 05:22:32;;;;;;;9.97;7.63;;;9.70;28.50;;;12.60;26.93;102018.81;5017190;28;20225;-48
2022/03/14 05:24:59;;;;;;;9.93;6.67;;;9.70;28.70;;;12.56;27.30;102020.13;5017233;28;20189;-49
2022/03/14 05:27:27;;;;;;;8.23;6.57;;;9.70;28.70;;;12.52;26.73;102031.16;5017726;28;20219;-48
2022/03/14 05:29:55;;;;;;;8.77;7.37;;;9.70;28.90;;;12.49;27.26;102024.38;5017228;28;20274;-46
2022/03/14 05:32:23;;;;;;;7.90;7.03;;;9.70;28.80;;;12.45;27.06;102027.47;5019010;28;20198;-48
2022/03/14 05:34:50;;;;;;;8.63;6.93;;;9.60;29.00;;;12.40;27.02;102021.81;5016900;28;20195;-47
2022/03/14 05:37:19;;;;;;;7.87;6.90;;;9.60;29.10;;;12.36;27.02;102028.41;5016216;28;20297;-48
2022/03/14 05:39:47;;;;;;;11.00;7.10;;;9.60;29.00;;;12.30;27.36;102026.34;5017024;28;20211;-48
2022/03/14 05:42:15;;;;;;;7.17;6.07;;;9.50;29.00;;;12.28;27.63;102028.34;5015787;28;20203;-47
2022/03/14 05:44:45;;;;;;;8.00;6.73;;;9.50;29.00;;;12.29;27.59;102040.56;5017176;28;20202;-48
2022/03/14 05:47:14;;;;;;;8.33;7.37;;;9.50;29.30;;;12.34;27.45;102036.47;5015897;28;20241;-46
2022/03/14 05:49:42;;;;;;;8.83;7.43;;;9.50;29.60;;;12.41;27.51;102041.97;5016486;28;20195;-48
2022/03/14 05:52:09;;;;;;;8.77;6.90;;;9.50;29.50;;;12.47;27.42;102047.47;5016188;28;20560;-46
2022/03/14 05:54:38;;;;;;;9.03;7.13;;;9.50;29.60;;;12.55;27.67;102050.13;5016304;28;20188;-48
2022/03/14 05:57:05;;;;;;;9.77;7.20;;;9.50;29.60;;;12.55;27.59;102057.25;5015662;28;20211;-45
2022/03/14 05:59:32;;;;;;;10.37;7.17;;;9.60;30.00;;;12.48;27.18;102053.56;5016603;28;20188;-49
2022/03/14 06:02:00;;;;;;;9.23;7.40;;;9.60;29.40;;;12.40;27.68;102054.34;5018238;28;20206;-47
2022/03/14 06:04:29;;;;;;;8.30;6.60;;;9.60;29.30;;;12.37;27.37;102053.81;5016837;28;20228;-48
2022/03/14 06:06:57;;;;;;;9.10;6.73;;;9.60;29.40;;;12.37;27.41;102056.44;5016783;28;20215;-47
2022/03/14 06:09:25;;;;;;;8.67;7.40;;;9.60;29.40;;;12.37;27.58;102061.72;5016464;28;20221;-48
2022/03/14 06:11:58;;;;;;;10.37;7.60;;;9.60;29.60;;;12.41;27.87;102063.09;5016494;28;20200;-47
2022/03/14 06:14:25;;;;;;;9.70;7.53;;;9.60;29.70;;;12.46;27.51;102071.34;5016633;28;20638;-48
2022/03/14 06:16:52;;;;;;;8.33;7.10;;;9.60;29.80;;;12.51;27.85;102074.38;5020294;28;20563;-51
2022/03/14 06:19:20;;;;;;;7.90;6.67;;;9.60;29.90;;;12.56;27.63;102077.38;5036292;28;20656;-48
2022/03/14 06:21:50;;;;;;;10.97;7.10;;;9.60;30.00;;;12.60;27.87;102084.03;5040049;28;20187;-47
2022/03/14 06:24:18;;;;;;;9.70;7.57;;;9.60;30.40;;;12.66;28.61;102083.41;5037633;28;20219;-48
2022/03/14 06:26:45;;;;;;;9.00;7.47;;;9.70;31.50;;;12.70;28.81;102085.56;5037588;28;20272;-48
2022/03/14 06:29:13;;;;;;;9.73;7.53;;;9.70;31.50;;;12.74;29.13;102096.69;5036542;28;20211;-47
2022/03/14 06:31:41;;;;;;;11.03;7.37;;;9.80;32.00;;;12.75;29.24;102093.03;5036774;28;20190;-47
2022/03/14 06:34:08;;;;;;;12.00;7.97;;;9.80;32.30;;;12.70;30.16;102100.59;5034499;28;20245;-49
2022/03/14 06:36:36;;;;;;;9.73;8.73;;;9.80;33.30;;;12.65;30.46;102102.88;5036797;28;20207;-50
2022/03/14 06:39:05;;;;;;;11.10;7.70;;;9.80;34.00;;;12.58;31.58;102102.66;5036139;28;20246;-48
2022/03/14 06:41:38;;;;;;;10.63;8.40;;;9.80;35.20;;;12.50;31.54;102107.06;5035417;28;20207;-47
2022/03/14 06:44:06;;;;;;;10.23;8.00;;;9.70;34.90;;;12.41;31.91;102111.44;5035518;28;20187;-50
2022/03/14 06:46:33;;;;;;;10.53;8.10;;;9.70;35.80;;;12.31;33.09;102112.50;5035345;28;20211;-48
2022/03/14 06:49:04;;;;;;;16.03;8.50;;;9.60;36.80;;;12.20;33.48;102109.13;5035229;28;20233;-48
2022/03/14 06:51:31;;;;;;;10.43;8.83;;;9.50;37.10;;;12.13;33.81;102113.34;5017320;28;20263;-47
2022/03/14 06:53:59;;;;;;;10.33;9.30;;;9.50;38.10;;;12.06;34.86;102120.19;5030473;28;20195;-47
2022/03/14 06:56:28;;;;;;;11.60;9.00;;;9.40;39.00;;;11.95;35.48;102122.22;5015184;28;20302;-48
2022/03/14 06:58:55;;;;;;;12.27;8.70;;;9.30;40.20;;;11.84;36.13;102120.63;5016534;28;20197;-50
2022/03/14 07:01:22;;;;;;;9.60;8.60;;;9.30;40.80;;;11.80;36.18;102121.06;5017166;28;20293;-48
2022/03/14 07:03:50;;;;;;;11.67;8.30;;;9.20;41.50;;;11.72;37.27;102134.19;5018158;28;20196;-48
2022/03/14 07:06:18;;;;;;;10.33;8.70;;;9.10;42.70;;;11.68;38.15;102128.34;5022554;28;20575;-48
2022/03/14 07:08:45;;;;;;;9.77;8.77;;;9.10;43.40;;;11.68;38.55;102138.06;5035366;28;20325;-48
2022/03/14 07:11:12;;;;;;;12.63;9.67;;;9.00;44.20;;;11.64;38.91;102139.31;5036323;28;20190;-47
2022/03/14 07:13:41;;;;;;;10.73;9.33;;;9.00;45.10;;;11.61;39.57;102143.06;5035908;28;20233;-46
2022/03/14 07:16:08;;;;;;;10.73;9.63;;;8.90;45.80;;;11.58;40.18;102151.25;5035621;28;20240;-48
2022/03/14 07:18:36;;;;;;;9.87;8.87;;;9.00;47.00;;;11.58;39.88;102140.72;5036121;28;20255;-46
2022/03/14 07:21:04;;;;;;;10.67;9.30;;;8.90;46.60;;;11.61;41.23;102143.06;5038899;28;20221;-45
2022/03/14 07:23:31;;;;;;;12.73;10.47;;;8.90;47.30;;;11.66;41.79;102145.25;5027184;28;20214;-47
2022/03/14 07:25:58;;;;;;;11.57;9.73;;;8.90;49.00;;;11.72;43.21;102153.44;5018085;28;20193;-47
2022/03/14 07:28:26;;;;;;;11.70;9.63;;;8.90;50.00;;;11.78;42.47;102144.97;5017111;28;20230;-46
2022/03/14 07:30:55;;;;;;;12.90;10.00;;;9.00;50.30;;;11.85;43.10;102146.03;5018151;28;20211;-49
2022/03/14 07:33:22;;;;;;;12.60;10.73;;;9.00;51.60;;;11.90;43.61;102154.34;5017995;28;20203;-46
2022/03/14 07:35:50;;;;;;;10.73;9.63;;;9.00;52.10;;;11.90;44.80;102159.63;5017228;28;20191;-46
2022/03/14 07:38:18;;;;;;;11.10;9.87;;;9.00;53.60;;;11.91;45.47;102161.25;5031452;28;20211;-48
2022/03/14 07:40:45;;;;;;;12.63;10.90;;;9.10;54.50;;;11.87;45.87;102169.63;5019158;28;20218;-48
2022/03/14 07:43:12;;;;;;;11.67;10.47;;;9.10;54.90;;;11.83;46.34;102166.47;5017865;28;20198;-46
2022/03/14 07:45:40;;;;;;;12.53;10.10;;;9.10;55.80;;;11.79;46.58;102167.72;5020532;28;20192;-46
2022/03/14 07:48:09;;;;;;;12.37;10.93;;;9.10;55.60;;;11.77;46.59;102174.09;5018081;28;20227;-48
2022/03/14 07:50:36;;;;;;;14.07;11.20;;;9.10;55.80;;;11.76;47.71;102167.19;5018369;28;20195;-46
2022/03/14 07:53:06;;;;;;;16.00;12.00;;;9.10;56.80;;;11.72;48.08;102176.38;5017083;28;20261;-46
2022/03/14 07:55:33;;;;;;;12.70;11.37;;;9.00;58.10;;;11.70;48.83;102178.31;5018120;28;20191;-48
2022/03/14 07:58:00;;;;;;;13.33;11.93;;;9.00;58.80;;;11.72;48.46;102171.09;5038330;28;20234;-48
2022/03/14 08:00:28;;;;;;;14.30;11.60;;;9.00;58.70;;;11.75;49.24;102178.69;5037044;28;20198;-48
2022/03/14 08:02:56;;;;;;;13.47;11.30;;;9.00;59.80;;;11.73;49.73;102184.13;5037816;28;20196;-47
2022/03/14 08:05:26;;;;;;;15.03;11.23;;;9.00;60.10;;;11.73;48.93;102188.56;5028579;28;20572;-46
2022/03/14 08:07:55;;;;;;;12.13;10.33;;;9.00;59.80;;;11.73;49.01;102192.03;5019136;28;20206;-50
2022/03/14 08:10:23;;;;;;;14.67;11.47;;;9.00;59.70;;;11.78;50.34;102191.59;5033597;28;20764;-49
2022/03/14 08:12:53;;;;;;;11.53;10.27;;;9.00;62.10;;;11.82;50.09;102198.25;5027061;28;20236;-49
2022/03/14 08:15:23;;;;;;;13.83;11.33;;;9.10;61.30;;;11.88;49.82;102200.31;5032584;28;20222;-48
2022/03/14 08:17:53;;;;;;;12.17;10.43;;;9.10;61.40;;;11.97;49.27;102205.53;5028929;28;20228;-51
2022/03/14 08:20:23;;;;;;;19.50;12.23;;;9.10;61.20;;;12.06;50.23;102207.28;5033898;28;20195;-46
2022/03/14 08:22:53;;;;;;;13.30;11.50;;;9.20;62.60;;;12.18;49.38;102206.09;5038962;28;20202;-48
2022/03/14 08:25:21;;;;;;;13.30;11.47;;;9.20;62.50;;;12.30;49.54;102209.34;5035297;28;20209;-47
2022/03/14 08:27:49;;;;;;;13.67;12.20;;;9.30;62.30;;;12.40;50.53;102204.00;5037391;28;20592;-47
2022/03/14 08:30:17;;;;;;;14.57;12.13;;;9.40;64.50;;;12.47;51.14;102202.44;5040659;28;20206;-49
2022/03/14 08:32:45;;;;;;;13.60;11.63;;;9.40;64.60;;;12.47;50.52;102210.34;5033084;28;20593;-48
2022/03/14 08:35:13;;;;;;;13.10;11.50;;;9.50;64.40;;;12.46;51.56;102211.31;5028254;28;20207;-47
2022/03/14 08:37:43;;;;;;;13.50;11.63;;;9.50;65.70;;;12.44;51.25;102216.75;5025711;28;20233;-48
2022/03/14 08:40:16;;;;;;;13.43;11.27;;;9.60;65.10;;;12.41;51.29;102214.41;5022957;28;20656;-53
2022/03/14 08:42:49;;;;;;;15.00;12.70;;;9.60;65.10;;;12.40;51.84;102214.56;5028072;28;20269;-50
2022/03/14 08:45:17;;;;;;;14.40;12.97;;;9.60;65.20;;;12.44;52.60;102215.91;5054625;28;20249;-47
2022/03/14 08:47:44;;;;;;;14.50;13.00;;;9.70;67.00;;;12.50;52.87;102210.06;5041065;28;20265;-47
2022/03/14 08:50:14;;;;;;;14.50;12.47;;;9.70;66.80;;;12.56;52.31;102214.72;5045078;28;20224;-49
2022/03/14 08:52:45;;;;;;;13.47;11.83;;;9.70;66.50;;;12.66;52.54;102212.84;5043874;28;20205;-49
2022/03/14 08:55:15;;;;;;;13.27;11.63;;;9.80;66.90;;;12.76;52.15;102216.25;5039100;28;20671;-47
2022/03/14 08:57:43;;;;;;;13.67;12.23;;;9.80;66.90;;;12.91;52.25;102227.91;5040124;28;20743;-50
2022/03/14 09:00:15;;;;;;;12.90;11.60;;;9.90;67.10;;;13.01;51.58;102226.00;5037585;28;20213;-50
2022/03/14 09:02:43;;;;;;;14.37;12.87;;;10.00;66.00;;;13.12;52.54;102231.06;5031872;28;20649;-48
2022/03/14 09:05:12;;;;;;;15.80;13.27;;;10.00;66.60;;;13.20;52.59;102230.31;5037518;28;20596;-48
2022/03/14 09:07:40;;;;;;;12.93;11.63;;;10.10;66.90;;;13.24;52.48;102227.19;5038604;28;20310;-48
2022/03/14 09:10:09;;;;;;;13.93;12.53;;;10.20;67.10;;;13.27;52.15;102228.69;5042594;28;20218;-47
2022/03/14 09:12:39;;;;;;;13.37;11.73;;;10.20;66.70;;;13.29;52.45;102224.91;5028273;28;20210;-48
2022/03/14 09:15:09;;;;;;;14.40;12.33;;;10.30;67.00;;;13.33;52.91;102225.44;5033090;28;20199;-46
2022/03/14 09:17:46;;;;;;;14.23;12.67;;;10.30;67.60;;;13.35;52.93;102228.75;5035778;28;20242;-48
2022/03/14 09:20:15;;;;;;;16.90;14.30;;;10.40;67.90;;;13.43;53.18;102232.28;5030793;28;20236;-47
2022/03/14 09:22:45;;;;;;;20.80;18.60;;;10.40;68.20;;;13.51;53.07;102240.28;5030680;28;20197;-46
2022/03/14 09:25:14;;;;;;;23.67;18.90;;;10.50;68.60;;;13.60;53.23;102237.69;5022799;28;20205;-47
2022/03/14 09:27:43;;;;;;;17.63;15.53;;;10.50;69.00;;;13.69;53.38;102236.75;5024315;28;20229;-50
2022/03/14 09:30:13;;;;;;;15.70;13.53;;;10.60;69.90;;;13.78;52.85;102238.44;5020602;28;20234;-46
2022/03/14 09:32:42;;;;;;;15.33;13.63;;;10.60;70.10;;;13.89;52.72;102238.13;5025574;28;20321;-47
2022/03/14 09:35:11;;;;;;;14.47;12.97;;;10.70;70.10;;;14.03;52.58;102237.53;5023144;28;20205;-49
2022/03/14 09:37:41;;;;;;;14.50;13.10;;;10.70;70.90;;;14.16;52.90;102235.28;5034048;28;20222;-46
2022/03/14 09:40:12;;;;;;;15.30;13.60;;;10.80;70.80;;;14.27;52.33;102227.84;5026454;28;20300;-48
2022/03/14 09:42:44;;;;;;;14.47;12.80;;;10.90;71.20;;;14.40;52.20;102232.72;5022467;28;20222;-48
2022/03/14 09:45:14;;;;;;;15.47;13.87;;;11.00;71.60;;;14.58;52.11;102224.63;5023984;28;20202;-49
2022/03/14 09:47:45;;;;;;;15.60;14.03;;;11.10;71.30;;;14.72;52.10;102222.16;5024175;28;20217;-50
2022/03/14 09:50:26;;;;;;;18.20;15.53;;;11.20;72.00;;;14.83;52.05;102224.47;5021441;28;20222;-48
2022/03/14 09:52:55;;;;;;;15.13;13.53;;;11.30;72.50;;;14.93;52.00;102225.13;5021255;28;20255;-53
2022/03/14 09:55:23;;;;;;;15.07;13.13;;;11.30;72.30;;;15.02;51.84;102228.63;5023177;28;20282;-50
2022/03/14 09:57:53;;;;;;;13.57;12.27;;;11.40;71.90;;;15.11;51.80;102226.78;5019737;28;20226;-48
2022/03/14 10:00:20;;;;;;;13.93;12.33;;;11.50;71.50;;;15.21;51.68;102228.28;5021132;28;20215;-52
2022/03/14 10:02:48;;;;;;;14.83;13.33;;;11.70;71.50;;;15.30;51.50;102229.09;5026514;28;20198;-48
2022/03/14 10:05:19;;;;;;;14.77;13.27;;;11.80;71.00;;;15.37;51.30;102238.03;5027599;28;20289;-51
2022/03/14 10:07:46;;;;;;;16.90;15.20;;;11.90;71.20;;;15.40;51.79;102237.72;5021970;28;20222;-52
2022/03/14 10:10:14;;;;;;;15.03;13.20;;;11.90;71.40;;;15.40;51.95;102240.34;5024386;28;20225;-47
2022/03/14 10:12:44;;;;;;;14.63;12.87;;;12.00;70.80;;;15.37;51.52;102243.34;5024106;28;21437;-53
2022/03/14 10:15:13;;;;;;;13.97;12.53;;;12.00;70.50;;;15.39;51.44;102244.81;5024144;28;21144;-50
2022/03/14 10:17:41;;;;;;;12.70;11.47;;;12.10;70.60;;;15.43;51.53;102246.13;5022791;28;20243;-52